Holy Cross — WDE7144 — position and weather

sailwx.info

Track history (hours):
 
Tides and Currents Weather Stations Pressure Air Temp Water Temp Dewpoint Dewpoint Depression Visibility Wind Speed Wind Dir Waves Ship Positions

Holy Cross

Owner: Marquette Transportation Company Gulf-Inland, LLC, Jefferson, LA. More information available from US FCC via Universal Licensing System and Coast Guard Vessel Documentation Center.

Last reported at 2017-Nov-15 12:42 UTC. Time now 2017-Nov-19 21:52 UTC.
Position N 29°51' W 091°54'.

Length 22 m; draft 2.7 m.

Type: . MMSI: 367389540.

Date/timePositionNaut miles runAvg speedWind from/ knotsBaromVisibWave heightAir tempDewpointWater temp
2017-Nov-15 12:42N 29°51' W 091°54'1 4.5
2017-Nov-15 12:29N 29°51' W 091°55'2 4.4
2017-Nov-15 11:57N 29°50' W 091°58'2 4.4
2017-Nov-15 11:30N 29°50' W 092°00'2 4.5
2017-Nov-15 11:01N 29°49' W 092°03'2 4.5
2017-Nov-15 10:30N 29°48' W 092°05'2 4.6
2017-Nov-15 10:00N 29°47' W 092°08'2 4.1
2017-Nov-15 09:31N 29°47' W 092°10'2 3.6
2017-Nov-15 09:01N 29°47' W 092°12'1 1.5
2017-Nov-15 08:31N 29°47' W 092°13'1 2.7
2017-Nov-15 08:00N 29°48' W 092°14'0 0.1
2017-Nov-15 07:30N 29°48' W 092°14'1 2.7
2017-Nov-15 07:01N 29°48' W 092°16'2 3.8
2017-Nov-15 06:30N 29°49' W 092°18'2 3.6
2017-Nov-15 06:00N 29°50' W 092°19'2 3.8
2017-Nov-15 05:27N 29°51' W 092°22'3 3.7
2017-Nov-15 04:46N 29°53' W 092°23'33 3.9
2017-Nov-14 20:06N 29°56' W 093°02'0 3.8
2017-Nov-14 20:00N 29°56' W 093°02'2 3.3
2017-Nov-14 19:30N 29°56' W 093°04'2 3.5
2017-Nov-14 19:00N 29°56' W 093°06'2 3.8
2017-Nov-14 18:30N 29°56' W 093°08'2 3.5
2017-Nov-14 18:00N 29°57' W 093°10'2 4.0
2017-Nov-14 17:31N 29°58' W 093°12'2 4.1
2017-Nov-14 17:00N 29°60' W 093°13'2 3.7
2017-Nov-14 16:31N 30°02' W 093°14'2 3.3
2017-Nov-14 16:00N 30°03' W 093°16'2 3.7
2017-Nov-14 15:30N 30°04' W 093°16'2 3.1
2017-Nov-14 15:00N 30°05' W 093°18'1 1.6
2017-Nov-14 14:31N 30°06' W 093°18'0 0.3
2017-Nov-14 13:59N 30°06' W 093°18'0 0.1
2017-Nov-14 13:30N 30°06' W 093°18'0 0.0
2017-Nov-14 13:00N 30°06' W 093°18'0 0.1
2017-Nov-14 12:30N 30°06' W 093°18'1 1.4
2017-Nov-14 11:51N 30°06' W 093°19'2 3.7
2017-Nov-14 11:25N 30°04' W 093°20'1 2.9
2017-Nov-14 10:57N 30°04' W 093°22'1 3.1
2017-Nov-14 10:29N 30°04' W 093°23'89 2.7
2017-Nov-13 01:59N 29°47' W 095°04'0 0.2
2017-Nov-13 01:04N 29°47' W 095°04'1 4.2
2017-Nov-13 00:57N 29°47' W 095°05'1 0.8
2017-Nov-12 23:49N 29°46' W 095°05'1 1.7
2017-Nov-12 23:28N 29°45' W 095°06'0 0.2
2017-Nov-12 22:09N 29°46' W 095°06'0 1.9
2017-Nov-12 22:00N 29°45' W 095°06'0 0.5
2017-Nov-12 21:29N 29°46' W 095°05'2 1.2
2017-Nov-12 20:13N 29°47' W 095°04'1 6.0
2017-Nov-12 19:59N 29°46' W 095°05'0 1.0
2017-Nov-12 19:30N 29°45' W 095°06'2 1.6
2017-Nov-12 18:22N 29°47' W 095°05'0 0.0
2017-Nov-12 17:58N 29°47' W 095°05'1 0.3
2017-Nov-12 13:52N 29°46' W 095°06'1 1.6
2017-Nov-12 13:30N 29°46' W 095°05'0 0.5
2017-Nov-12 12:59N 29°46' W 095°05'1 1.1
2017-Nov-12 12:30N 29°46' W 095°05'1 1.7
2017-Nov-12 12:00N 29°47' W 095°04'0 0.2
2017-Nov-12 11:29N 29°47' W 095°04'0 0.7
2017-Nov-12 10:59N 29°47' W 095°05'1 2.7
2017-Nov-12 10:30N 29°45' W 095°04'2 4.7
2017-Nov-12 10:00N 29°44' W 095°02'2 4.3
2017-Nov-12 09:30N 29°42' W 095°01'3 5.1
2017-Nov-12 09:00N 29°40' W 094°59'3 5.3
2017-Nov-12 08:30N 29°38' W 094°58'3 5.3
2017-Nov-12 08:00N 29°35' W 094°56'3 5.3
2017-Nov-12 07:30N 29°33' W 094°55'3 5.7
2017-Nov-12 07:00N 29°31' W 094°53'10 2.9
2017-Nov-12 03:35N 29°26' W 094°43'0 1.5
2017-Nov-12 03:30N 29°26' W 094°43'125 3.1
2017-Nov-10 11:12N 29°51' W 092°22'1 3.5
2017-Nov-10 11:00N 29°51' W 092°21'2 3.3
2017-Nov-10 10:30N 29°50' W 092°19'1 1.7
2017-Nov-10 10:00N 29°50' W 092°18'2 3.8
2017-Nov-10 09:30N 29°49' W 092°17'2 4.0
2017-Nov-10 09:00N 29°48' W 092°15'2 3.8
2017-Nov-10 08:30N 29°47' W 092°13'1 1.2
2017-Nov-10 08:00N 29°47' W 092°12'1 1.3
2017-Nov-10 07:30N 29°47' W 092°11'1 1.4
2017-Nov-10 07:00N 29°47' W 092°11'2 3.5
2017-Nov-10 06:30N 29°47' W 092°09'2 3.6
2017-Nov-10 06:00N 29°48' W 092°07'2 3.7
2017-Nov-10 05:30N 29°48' W 092°05'2 3.7
2017-Nov-10 05:00N 29°49' W 092°03'2 4.0
2017-Nov-10 04:30N 29°50' W 092°01'2 3.7
2017-Nov-10 04:00N 29°50' W 091°58'2 3.6
2017-Nov-10 03:30N 29°51' W 091°56'2 4.2
2017-Nov-10 03:00N 29°51' W 091°54'  
2017-Nov-07 01:30N 29°51' W 091°54'2 4.3
2017-Nov-07 01:00N 29°51' W 091°57'2 4.6
2017-Nov-07 00:30N 29°50' W 091°59'2 4.3
2017-Nov-07 00:00N 29°49' W 092°02'2 4.4
2017-Nov-06 23:30N 29°48' W 092°04'2 4.4
2017-Nov-06 23:00N 29°48' W 092°06'2 5.0
2017-Nov-06 22:30N 29°47' W 092°09'2 4.9
2017-Nov-06 22:00N 29°47' W 092°12'3 5.3
2017-Nov-06 21:30N 29°48' W 092°15'3 5.1
2017-Nov-06 21:00N 29°49' W 092°17'2 4.6
2017-Nov-06 20:30N 29°50' W 092°20'54 3.0
2017-Nov-06 02:31N 30°06' W 093°19'0 0.6
2017-Nov-06 02:00N 30°06' W 093°19'2 3.8
2017-Nov-06 01:30N 30°04' W 093°21'2 3.5
2017-Nov-06 01:00N 30°04' W 093°22'2 4.4
2017-Nov-06 00:30N 30°04' W 093°25'2 4.6
2017-Nov-06 00:00N 30°04' W 093°28'2 4.7
2017-Nov-05 23:30N 30°04' W 093°30'2 4.6
2017-Nov-05 23:00N 30°04' W 093°33'2 4.0
2017-Nov-05 22:30N 30°04' W 093°35'3 4.8
2017-Nov-05 21:58N 30°04' W 093°38'  
Track history (hours):
 
Tides and Currents Weather Stations Pressure Air Temp Water Temp Dewpoint Dewpoint Depression Visibility Wind Speed Wind Dir Waves Ship Positions

Holy Cross

Owner: Marquette Transportation Company Gulf-Inland, LLC, Jefferson, LA. More information available from US FCC via Universal Licensing System and Coast Guard Vessel Documentation Center.

Last reported at 2017-Nov-15 12:42 UTC. Time now 2017-Nov-19 21:52 UTC.
Position N 29°51' W 091°54'.

Length 22 m; draft 2.7 m.

Type: . MMSI: 367389540.

Date/timePositionNaut miles runAvg speedWind from/ knotsBaromVisibWave heightAir tempDewpointWater temp
2017-Nov-15 12:42N 29°51' W 091°54'1 4.5
2017-Nov-15 12:29N 29°51' W 091°55'2 4.4
2017-Nov-15 11:57N 29°50' W 091°58'2 4.4
2017-Nov-15 11:30N 29°50' W 092°00'2 4.5
2017-Nov-15 11:01N 29°49' W 092°03'2 4.5
2017-Nov-15 10:30N 29°48' W 092°05'2 4.6
2017-Nov-15 10:00N 29°47' W 092°08'2 4.1
2017-Nov-15 09:31N 29°47' W 092°10'2 3.6
2017-Nov-15 09:01N 29°47' W 092°12'1 1.5
2017-Nov-15 08:31N 29°47' W 092°13'1 2.7
2017-Nov-15 08:00N 29°48' W 092°14'0 0.1
2017-Nov-15 07:30N 29°48' W 092°14'1 2.7
2017-Nov-15 07:01N 29°48' W 092°16'2 3.8
2017-Nov-15 06:30N 29°49' W 092°18'2 3.6
2017-Nov-15 06:00N 29°50' W 092°19'2 3.8
2017-Nov-15 05:27N 29°51' W 092°22'3 3.7
2017-Nov-15 04:46N 29°53' W 092°23'33 3.9
2017-Nov-14 20:06N 29°56' W 093°02'0 3.8
2017-Nov-14 20:00N 29°56' W 093°02'2 3.3
2017-Nov-14 19:30N 29°56' W 093°04'2 3.5
2017-Nov-14 19:00N 29°56' W 093°06'2 3.8
2017-Nov-14 18:30N 29°56' W 093°08'2 3.5
2017-Nov-14 18:00N 29°57' W 093°10'2 4.0
2017-Nov-14 17:31N 29°58' W 093°12'2 4.1
2017-Nov-14 17:00N 29°60' W 093°13'2 3.7
2017-Nov-14 16:31N 30°02' W 093°14'2 3.3
2017-Nov-14 16:00N 30°03' W 093°16'2 3.7
2017-Nov-14 15:30N 30°04' W 093°16'2 3.1
2017-Nov-14 15:00N 30°05' W 093°18'1 1.6
2017-Nov-14 14:31N 30°06' W 093°18'0 0.3
2017-Nov-14 13:59N 30°06' W 093°18'0 0.1
2017-Nov-14 13:30N 30°06' W 093°18'0 0.0
2017-Nov-14 13:00N 30°06' W 093°18'0 0.1
2017-Nov-14 12:30N 30°06' W 093°18'1 1.4
2017-Nov-14 11:51N 30°06' W 093°19'2 3.7
2017-Nov-14 11:25N 30°04' W 093°20'1 2.9
2017-Nov-14 10:57N 30°04' W 093°22'1 3.1
2017-Nov-14 10:29N 30°04' W 093°23'89 2.7
2017-Nov-13 01:59N 29°47' W 095°04'0 0.2
2017-Nov-13 01:04N 29°47' W 095°04'1 4.2
2017-Nov-13 00:57N 29°47' W 095°05'1 0.8
2017-Nov-12 23:49N 29°46' W 095°05'1 1.7
2017-Nov-12 23:28N 29°45' W 095°06'0 0.2
2017-Nov-12 22:09N 29°46' W 095°06'0 1.9
2017-Nov-12 22:00N 29°45' W 095°06'0 0.5
2017-Nov-12 21:29N 29°46' W 095°05'2 1.2
2017-Nov-12 20:13N 29°47' W 095°04'1 6.0
2017-Nov-12 19:59N 29°46' W 095°05'0 1.0
2017-Nov-12 19:30N 29°45' W 095°06'2 1.6
2017-Nov-12 18:22N 29°47' W 095°05'0 0.0
2017-Nov-12 17:58N 29°47' W 095°05'1 0.3
2017-Nov-12 13:52N 29°46' W 095°06'1 1.6
2017-Nov-12 13:30N 29°46' W 095°05'0 0.5
2017-Nov-12 12:59N 29°46' W 095°05'1 1.1
2017-Nov-12 12:30N 29°46' W 095°05'1 1.7
2017-Nov-12 12:00N 29°47' W 095°04'0 0.2
2017-Nov-12 11:29N 29°47' W 095°04'0 0.7
2017-Nov-12 10:59N 29°47' W 095°05'1 2.7
2017-Nov-12 10:30N 29°45' W 095°04'2 4.7
2017-Nov-12 10:00N 29°44' W 095°02'2 4.3
2017-Nov-12 09:30N 29°42' W 095°01'3 5.1
2017-Nov-12 09:00N 29°40' W 094°59'3 5.3
2017-Nov-12 08:30N 29°38' W 094°58'3 5.3
2017-Nov-12 08:00N 29°35' W 094°56'3 5.3
2017-Nov-12 07:30N 29°33' W 094°55'3 5.7
2017-Nov-12 07:00N 29°31' W 094°53'10 2.9
2017-Nov-12 03:35N 29°26' W 094°43'0 1.5
2017-Nov-12 03:30N 29°26' W 094°43'125 3.1
2017-Nov-10 11:12N 29°51' W 092°22'1 3.5
2017-Nov-10 11:00N 29°51' W 092°21'2 3.3
2017-Nov-10 10:30N 29°50' W 092°19'1 1.7
2017-Nov-10 10:00N 29°50' W 092°18'2 3.8
2017-Nov-10 09:30N 29°49' W 092°17'2 4.0
2017-Nov-10 09:00N 29°48' W 092°15'2 3.8
2017-Nov-10 08:30N 29°47' W 092°13'1 1.2
2017-Nov-10 08:00N 29°47' W 092°12'1 1.3
2017-Nov-10 07:30N 29°47' W 092°11'1 1.4
2017-Nov-10 07:00N 29°47' W 092°11'2 3.5
2017-Nov-10 06:30N 29°47' W 092°09'2 3.6
2017-Nov-10 06:00N 29°48' W 092°07'2 3.7
2017-Nov-10 05:30N 29°48' W 092°05'2 3.7
2017-Nov-10 05:00N 29°49' W 092°03'2 4.0
2017-Nov-10 04:30N 29°50' W 092°01'2 3.7
2017-Nov-10 04:00N 29°50' W 091°58'2 3.6
2017-Nov-10 03:30N 29°51' W 091°56'2 4.2
2017-Nov-10 03:00N 29°51' W 091°54'  
2017-Nov-07 01:30N 29°51' W 091°54'2 4.3
2017-Nov-07 01:00N 29°51' W 091°57'2 4.6
2017-Nov-07 00:30N 29°50' W 091°59'2 4.3
2017-Nov-07 00:00N 29°49' W 092°02'2 4.4
2017-Nov-06 23:30N 29°48' W 092°04'2 4.4
2017-Nov-06 23:00N 29°48' W 092°06'2 5.0
2017-Nov-06 22:30N 29°47' W 092°09'2 4.9
2017-Nov-06 22:00N 29°47' W 092°12'3 5.3
2017-Nov-06 21:30N 29°48' W 092°15'3 5.1
2017-Nov-06 21:00N 29°49' W 092°17'2 4.6
2017-Nov-06 20:30N 29°50' W 092°20'54 3.0
2017-Nov-06 02:31N 30°06' W 093°19'0 0.6
2017-Nov-06 02:00N 30°06' W 093°19'2 3.8
2017-Nov-06 01:30N 30°04' W 093°21'2 3.5
2017-Nov-06 01:00N 30°04' W 093°22'2 4.4
2017-Nov-06 00:30N 30°04' W 093°25'2 4.6
2017-Nov-06 00:00N 30°04' W 093°28'2 4.7
2017-Nov-05 23:30N 30°04' W 093°30'2 4.6
2017-Nov-05 23:00N 30°04' W 093°33'2 4.0
2017-Nov-05 22:30N 30°04' W 093°35'3 4.8
2017-Nov-05 21:58N 30°04' W 093°38'  

Dump ship's entire track history